KMOX/MOX METAR and TAF weather

Enter ICAO airport designator
Station Type Date Time Source
KMOX METAR 2019/08/24 07:36 UTC NOAA

KMOX 240736Z AUTO 14005KT 10SM CLR 16/16 A3010 RMK AO2


Station Type Date Time Source
KMOX Decoded METAR 2019/08/24 07:36 UTC NOAA

Station name not available
Aug 24, 2019 - 03:36 AM EDT / 2019.08.24 0736 UTC
Wind: from the SE (140 degrees) at 6 MPH (5 KT):0
Visibility: 10 mile(s):0
Sky conditions: clear
Temperature: 60 F (16 C)
Dew Point: 60 F (16 C)
Relative Humidity: 100%
Pressure (altimeter): 30.1 in. Hg (1019 hPa)
ob: KMOX 240736Z AUTO 14005KT 10SM CLR 16/16 A3010 RMK AO2
cycle: 7

Station Type Date Time Source
KMOX TAF UTC NOAA

Error!

Example: see airport list